Downpatrick, United Kingdom
Current Conditions -  °F | °C
As of 1:20 PM on Thursday 23 Oct 2014 (Local Time) from EGAC Reporting Station
Scattered Clouds Scattered Clouds  
Wind Chill: 59°   Ceiling: Unl
Heat Index: 59°   Visibility: 6mi
Dew Point: 52°   Wind: 21mph
Humidity: 77%   Direction: 230°SW
Pressure: 29.8"   Gusts: NA
Location:  54.33°N, 5.7°W
Report Text: EGAC 231220Z 23018KT 9999 FEW018 SCT024 15/11 Q1009
Loading
Personal Weather Stations






























Interactive Weather Map
Tropical Storm Tracking
New forecast layout! Learn more

10-Day Weather Forecast

Advertisements
Track Severe Weather on mobile